createdAt,value
2019-04-07T00:01:13.589Z,78.20
2019-04-07T00:03:42.937Z,77.90
2019-04-07T00:06:12.515Z,78.30
2019-04-07T00:08:42.206Z,78.10
2019-04-07T00:11:11.932Z,78.40
2019-04-07T00:13:41.703Z,78.20
2019-04-07T00:16:11.148Z,77.10
2019-04-07T00:18:40.983Z,76.50
2019-04-07T00:21:11.287Z,76.50
2019-04-07T00:23:41.717Z,76.30
2019-04-07T00:26:11.446Z,76.40
2019-04-07T00:28:41.162Z,77.70
2019-04-07T00:31:10.635Z,76.80
2019-04-07T00:33:40.211Z,77.40
2019-04-07T00:36:09.867Z,77.50
2019-04-07T00:38:40.855Z,77.40
2019-04-07T00:41:10.849Z,77.50
2019-04-07T00:43:40.621Z,76.60
2019-04-07T00:46:10.245Z,78.20
2019-04-07T00:48:39.733Z,78.70
2019-04-07T00:51:09.132Z,78.80
2019-04-07T00:53:38.844Z,79.20
2019-04-07T00:56:09.376Z,79.90
2019-04-07T00:58:39.091Z,80.10
2019-04-07T01:01:11.683Z,79.00
2019-04-07T01:03:41.424Z,79.40
2019-04-07T01:06:11.491Z,78.50
2019-04-07T01:08:41.573Z,79.20
2019-04-07T01:11:11.385Z,79.70
2019-04-07T01:13:41.580Z,79.70
2019-04-07T01:16:11.947Z,79.50
2019-04-07T01:18:41.643Z,80.00
2019-04-07T01:21:11.264Z,79.20
2019-04-07T01:23:41.436Z,80.00
2019-04-07T01:26:11.229Z,80.20
2019-04-07T01:28:41.720Z,79.90
2019-04-07T01:31:12.199Z,80.20
2019-04-07T01:33:41.688Z,80.60
2019-04-07T01:36:11.297Z,80.40
2019-04-07T01:38:41.127Z,80.50
2019-04-07T01:41:31.757Z,80.30
2019-04-07T01:44:09.159Z,80.10
2019-04-07T01:46:40.484Z,79.60
2019-04-07T01:49:20.683Z,79.20
2019-04-07T01:51:52.990Z,78.90
2019-04-07T01:54:33.509Z,78.60
2019-04-07T01:57:10.708Z,78.20
2019-04-07T02:00:00.713Z,78.30
2019-04-07T02:02:36.706Z,78.60
2019-04-07T02:05:26.274Z,78.70
2019-04-07T02:07:57.678Z,78.70
2019-04-07T02:10:35.147Z,78.40
2019-04-07T02:13:09.085Z,78.40
2019-04-07T02:15:40.592Z,78.40
2019-04-07T02:18:23.754Z,78.80
2019-04-07T02:21:02.068Z,78.70
2019-04-07T02:23:48.273Z,78.70
2019-04-07T02:26:19.445Z,77.60
2019-04-07T02:28:53.781Z,77.90
2019-04-07T02:31:28.156Z,77.90
2019-04-07T02:34:00.964Z,77.90
2019-04-07T02:36:49.818Z,78.40
2019-04-07T02:39:21.535Z,78.20
2019-04-07T02:42:07.631Z,78.40
2019-04-07T02:44:48.267Z,78.50
2019-04-07T02:47:25.906Z,78.20
2019-04-07T02:50:03.354Z,77.90
2019-04-07T02:52:40.640Z,77.70
2019-04-07T02:55:27.991Z,77.50
2019-04-07T02:57:59.612Z,77.40
2019-04-07T03:00:31.619Z,77.60
2019-04-07T03:03:20.098Z,77.20
2019-04-07T03:05:51.418Z,77.00
2019-04-07T03:08:25.117Z,77.60
2019-04-07T03:10:57.076Z,76.90
2019-04-07T03:13:29.067Z,77.20
2019-04-07T03:16:04.313Z,77.20
2019-04-07T03:18:35.927Z,76.80
2019-04-07T03:21:07.668Z,76.90
2019-04-07T03:23:39.016Z,76.70
2019-04-07T03:26:11.010Z,76.50
2019-04-07T03:28:51.487Z,76.30
2019-04-07T03:31:23.955Z,76.30
2019-04-07T03:33:56.574Z,75.70
2019-04-07T03:36:30.248Z,75.70
2019-04-07T03:39:17.207Z,75.90
2019-04-07T03:41:49.203Z,75.60
2019-04-07T03:44:20.619Z,75.00
2019-04-07T03:47:01.503Z,74.80
2019-04-07T03:49:39.302Z,75.10
2019-04-07T03:52:11.790Z,75.70
2019-04-07T03:54:58.866Z,76.30
2019-04-07T03:57:32.876Z,76.60
2019-04-07T04:00:06.760Z,76.50
2019-04-07T04:02:46.403Z,76.30
2019-04-07T04:05:22.066Z,76.60
2019-04-07T04:07:56.773Z,76.70
2019-04-07T04:10:44.957Z,76.40
2019-04-07T04:13:20.232Z,76.30
2019-04-07T04:15:51.724Z,76.90
2019-04-07T04:18:21.330Z,77.10
2019-04-07T04:20:50.688Z,77.10
2019-04-07T04:23:20.044Z,77.00
2019-04-07T04:25:49.631Z,76.70
2019-04-07T04:28:20.410Z,76.80
2019-04-07T04:30:50.706Z,76.50
2019-04-07T04:33:20.425Z,76.70
2019-04-07T04:35:49.804Z,77.20
2019-04-07T04:38:20.080Z,77.00
2019-04-07T04:40:50.749Z,77.30
2019-04-07T04:43:20.337Z,77.60
2019-04-07T04:45:50.387Z,77.30
2019-04-07T04:48:19.905Z,77.20
2019-04-07T04:50:50.314Z,77.30
2019-04-07T04:53:20.170Z,76.60
2019-04-07T04:55:49.830Z,76.50
2019-04-07T04:58:19.482Z,76.60
2019-04-07T05:00:50.684Z,76.90
2019-04-07T05:03:20.427Z,76.30
2019-04-07T05:05:49.968Z,76.70
2019-04-07T05:08:20.394Z,76.50
2019-04-07T05:10:50.049Z,76.60
2019-04-07T05:13:19.875Z,76.70
2019-04-07T05:15:50.205Z,76.40
2019-04-07T05:18:32.299Z,76.50
2019-04-07T05:21:01.922Z,76.10
2019-04-07T05:23:31.761Z,76.60
2019-04-07T05:26:21.080Z,76.30
2019-04-07T05:28:50.555Z,76.40
2019-04-07T05:31:19.953Z,75.40
2019-04-07T05:33:49.844Z,75.20
2019-04-07T05:36:19.471Z,74.90
2019-04-07T05:38:50.031Z,74.90
2019-04-07T05:41:19.489Z,74.80
2019-04-07T05:43:49.137Z,74.20
2019-04-07T05:46:19.300Z,74.00
2019-04-07T05:48:51.022Z,73.70
2019-04-07T05:51:21.105Z,73.80
2019-04-07T05:53:50.560Z,73.40
2019-04-07T05:56:19.944Z,73.20
2019-04-07T05:58:49.450Z,73.20
2019-04-07T06:01:21.710Z,73.00
2019-04-07T06:03:50.110Z,73.60
2019-04-07T06:06:20.864Z,73.70
2019-04-07T06:08:51.812Z,73.10
2019-04-07T06:11:21.698Z,73.80
2019-04-07T06:13:51.945Z,73.40
2019-04-07T06:16:22.545Z,73.30
2019-04-07T06:18:52.378Z,74.00
2019-04-07T06:21:22.232Z,74.90
2019-04-07T06:23:55.371Z,76.10
2019-04-07T06:26:23.159Z,75.80
2019-04-07T06:28:57.404Z,74.20
2019-04-07T06:31:25.373Z,72.80
2019-04-07T06:33:55.209Z,72.50
2019-04-07T06:36:26.583Z,72.40
2019-04-07T06:38:56.027Z,74.30
2019-04-07T06:41:30.104Z,72.90
2019-04-07T06:44:09.025Z,72.20
2019-04-07T06:46:29.656Z,72.20
2019-04-07T06:49:11.697Z,72.10
2019-04-07T06:52:02.900Z,71.60
2019-04-07T06:54:50.110Z,70.60
2019-04-07T06:57:35.057Z,70.90
2019-04-07T07:00:24.449Z,70.10
2019-04-07T07:02:54.399Z,70.10
2019-04-07T07:05:25.635Z,71.00
2019-04-07T07:08:12.680Z,71.20
2019-04-07T07:11:00.006Z,71.00
2019-04-07T07:13:33.712Z,73.30
2019-04-07T07:16:09.541Z,76.00
2019-04-07T07:18:40.330Z,73.70
2019-04-07T07:21:13.276Z,72.60
2019-04-07T07:23:48.940Z,70.50
2019-04-07T07:26:17.175Z,70.40
2019-04-07T07:28:46.987Z,69.80
2019-04-07T07:31:16.749Z,70.50
2019-04-07T07:33:47.377Z,69.10
2019-04-07T07:36:19.541Z,67.50
2019-04-07T07:38:57.590Z,66.80
2019-04-07T07:41:22.190Z,66.80
2019-04-07T07:43:51.375Z,67.40
2019-04-07T07:46:22.859Z,67.70
2019-04-07T07:49:04.277Z,67.20
2019-04-07T07:51:38.297Z,66.00
2019-04-07T07:54:07.040Z,65.40
2019-04-07T07:56:36.754Z,65.50
2019-04-07T07:59:06.406Z,65.30
2019-04-07T08:01:36.411Z,65.20
2019-04-07T08:04:06.267Z,65.30
2019-04-07T08:06:40.265Z,65.30
2019-04-07T08:09:13.665Z,65.10
2019-04-07T08:11:40.250Z,64.40
2019-04-07T08:14:16.602Z,64.00
2019-04-07T08:16:44.644Z,63.90
2019-04-07T08:19:14.242Z,63.90
2019-04-07T08:21:45.613Z,63.40
2019-04-07T08:24:17.678Z,64.00
2019-04-07T08:26:47.070Z,63.70
2019-04-07T08:29:16.950Z,63.50
2019-04-07T08:31:47.006Z,63.00
2019-04-07T08:34:16.797Z,62.40
2019-04-07T08:36:47.064Z,62.20
2019-04-07T08:39:23.783Z,62.40
2019-04-07T08:41:48.493Z,62.50
2019-04-07T08:44:18.007Z,61.40
2019-04-07T08:46:47.531Z,61.70
2019-04-07T08:49:17.108Z,61.30
2019-04-07T08:51:46.695Z,61.80
2019-04-07T08:54:18.287Z,61.20
2019-04-07T08:56:48.038Z,60.80
2019-04-07T08:59:18.404Z,60.40
2019-04-07T09:01:52.276Z,59.90
2019-04-07T09:04:19.381Z,59.30
2019-04-07T09:06:48.999Z,59.90
2019-04-07T09:09:30.355Z,58.90
2019-04-07T09:11:52.994Z,58.20
2019-04-07T09:14:22.164Z,58.30
2019-04-07T09:17:09.429Z,58.20
2019-04-07T09:19:41.658Z,57.50
2019-04-07T09:22:30.661Z,57.40
2019-04-07T09:25:18.255Z,57.00
2019-04-07T09:27:50.327Z,56.80
2019-04-07T09:30:29.675Z,56.50
2019-04-07T09:33:01.335Z,56.80
2019-04-07T09:35:38.788Z,57.30
2019-04-07T09:38:28.438Z,57.30
2019-04-07T09:41:02.729Z,57.50
2019-04-07T09:43:50.750Z,57.00
2019-04-07T09:46:42.015Z,56.40
2019-04-07T09:49:11.199Z,56.10
2019-04-07T09:51:58.633Z,55.40
2019-04-07T09:57:19.063Z,54.30
2019-04-07T09:59:54.518Z,53.40
2019-04-07T10:02:43.676Z,53.90
2019-04-07T10:05:33.676Z,54.90
2019-04-07T10:08:23.779Z,54.40
2019-04-07T10:11:07.452Z,54.30
2019-04-07T10:13:55.434Z,54.20
2019-04-07T10:16:34.148Z,54.70
2019-04-07T10:19:13.093Z,54.90
2019-04-07T10:21:56.336Z,53.20
2019-04-07T10:24:31.386Z,52.60
2019-04-07T10:27:11.371Z,52.30
2019-04-07T10:29:59.212Z,52.90
2019-04-07T10:32:33.052Z,53.10
2019-04-07T10:35:07.021Z,51.80
2019-04-07T10:37:50.240Z,52.10
2019-04-07T10:40:22.100Z,53.20
2019-04-07T10:43:11.760Z,52.70
2019-04-07T10:45:53.814Z,53.30
2019-04-07T10:48:41.282Z,53.70
2019-04-07T10:51:12.476Z,53.10
2019-04-07T10:54:00.119Z,51.60
2019-04-07T10:56:43.855Z,50.90
2019-04-07T10:59:17.421Z,51.60
2019-04-07T11:01:51.724Z,51.60
2019-04-07T11:04:23.044Z,51.90
2019-04-07T11:07:10.627Z,51.70
2019-04-07T11:09:41.803Z,52.40
2019-04-07T11:12:30.553Z,51.70
2019-04-07T11:15:02.817Z,51.50
2019-04-07T11:17:39.614Z,51.80
2019-04-07T11:20:13.357Z,51.30
2019-04-07T11:22:54.072Z,51.40
2019-04-07T11:25:42.665Z,50.20
2019-04-07T11:28:22.639Z,50.40
2019-04-07T11:30:53.899Z,50.30
2019-04-07T11:33:43.814Z,50.50
2019-04-07T11:36:21.546Z,51.00
2019-04-07T11:39:08.975Z,50.20
2019-04-07T11:41:47.193Z,47.30
2019-04-07T11:44:20.175Z,47.60
2019-04-07T11:46:54.469Z,46.60
2019-04-07T11:49:31.342Z,46.40
2019-04-07T11:52:09.613Z,45.80
2019-04-07T11:54:46.707Z,45.00
2019-04-07T11:57:36.609Z,44.00
2019-04-07T12:00:26.975Z,44.10
2019-04-07T12:03:03.953Z,43.70
2019-04-07T12:05:48.394Z,44.00
2019-04-07T12:08:32.274Z,42.50
2019-04-07T12:11:05.072Z,43.60
2019-04-07T12:13:47.959Z,43.80
2019-04-07T12:16:37.974Z,42.90
2019-04-07T12:19:10.673Z,40.70
2019-04-07T12:21:49.311Z,41.00
2019-04-07T12:24:31.407Z,40.70
2019-04-07T12:30:08.951Z,40.90
2019-04-07T12:32:46.649Z,41.70
2019-04-07T12:35:19.486Z,42.40
2019-04-07T12:37:58.359Z,42.50
2019-04-07T12:40:30.578Z,42.70
2019-04-07T12:43:05.661Z,43.00
2019-04-07T12:45:37.115Z,42.70
2019-04-07T12:48:14.524Z,41.80
2019-04-07T12:50:49.839Z,42.30
2019-04-07T12:53:25.171Z,42.60
2019-04-07T12:56:08.106Z,43.30
2019-04-07T12:58:55.942Z,43.00
2019-04-07T13:01:29.983Z,41.30
2019-04-07T13:04:16.299Z,40.90
2019-04-07T13:06:52.367Z,41.20
2019-04-07T13:09:29.729Z,40.70
2019-04-07T13:12:04.037Z,39.70
2019-04-07T13:14:53.656Z,38.80
2019-04-07T13:17:41.004Z,38.90
2019-04-07T13:20:22.380Z,38.70
2019-04-07T13:23:00.230Z,38.10
2019-04-07T13:25:34.557Z,38.60
2019-04-07T13:28:17.506Z,39.10
2019-04-07T13:30:48.929Z,39.60
2019-04-07T13:33:26.455Z,39.90
2019-04-07T13:36:12.982Z,38.90
2019-04-07T13:38:46.588Z,38.40
2019-04-07T13:41:41.689Z,38.60
2019-04-07T13:44:17.371Z,38.50
2019-04-07T13:47:06.329Z,38.20
2019-04-07T13:49:51.517Z,38.10
2019-04-07T13:52:32.288Z,38.00
2019-04-07T13:55:12.971Z,36.10
2019-04-07T13:58:02.597Z,34.30
2019-04-07T14:00:37.104Z,32.40
2019-04-07T14:03:08.405Z,31.10
2019-04-07T14:05:49.071Z,30.20
2019-04-07T14:08:37.175Z,29.90
2019-04-07T14:11:18.691Z,28.60
2019-04-07T14:14:06.811Z,28.80
2019-04-07T14:16:43.975Z,27.60
2019-04-07T14:19:21.095Z,28.00
2019-04-07T14:21:58.960Z,27.10
2019-04-07T14:24:42.487Z,27.30
2019-04-07T14:27:14.282Z,26.20
2019-04-07T14:29:51.289Z,26.30
2019-04-07T14:32:28.413Z,25.80
2019-04-07T14:35:04.174Z,26.80
2019-04-07T14:37:54.706Z,27.00
2019-04-07T14:40:38.861Z,27.00
2019-04-07T14:43:13.637Z,28.50
2019-04-07T14:45:57.916Z,29.80
2019-04-07T14:48:35.870Z,30.80
2019-04-07T14:51:25.433Z,32.50
2019-04-07T14:54:15.213Z,33.40
2019-04-07T14:57:02.144Z,33.10
2019-04-07T14:59:34.000Z,33.40
2019-04-07T15:02:04.442Z,34.70
2019-04-07T15:04:36.741Z,35.20
2019-04-07T15:07:10.023Z,35.40
2019-04-07T15:09:53.498Z,36.00
2019-04-07T15:12:33.888Z,36.40
2019-04-07T15:15:08.663Z,35.50
2019-04-07T15:17:37.031Z,36.20
2019-04-07T15:20:11.621Z,37.10
2019-04-07T15:22:39.036Z,39.10
2019-04-07T15:25:10.312Z,39.30
2019-04-07T15:27:40.183Z,37.20
2019-04-07T15:30:15.555Z,37.20
2019-04-07T15:32:45.884Z,37.20
2019-04-07T15:35:16.561Z,37.30
2019-04-07T15:37:46.637Z,38.30
2019-04-07T15:40:16.489Z,38.20
2019-04-07T15:42:50.556Z,38.50
2019-04-07T15:45:20.300Z,38.90
2019-04-07T15:47:52.928Z,39.40
2019-04-07T15:50:21.477Z,40.10
2019-04-07T15:52:51.332Z,40.60
2019-04-07T15:55:21.726Z,40.30
2019-04-07T15:57:54.869Z,40.70
2019-04-07T16:00:23.722Z,40.60
2019-04-07T16:02:53.709Z,41.40
2019-04-07T16:05:24.149Z,42.10
2019-04-07T16:07:55.407Z,41.50
2019-04-07T16:10:26.078Z,42.50
2019-04-07T16:12:59.304Z,42.80
2019-04-07T16:15:28.075Z,42.80
2019-04-07T16:17:57.617Z,42.60
2019-04-07T16:20:32.299Z,43.20
2019-04-07T16:22:58.312Z,42.60
2019-04-07T16:25:29.009Z,42.50
2019-04-07T16:27:58.824Z,42.70
2019-04-07T16:30:30.385Z,42.70
2019-04-07T16:33:03.163Z,43.00
2019-04-07T16:35:31.276Z,43.00
2019-04-07T16:38:01.769Z,43.90
2019-04-07T16:40:31.911Z,44.50
2019-04-07T16:43:10.921Z,45.10
2019-04-07T16:45:32.769Z,45.50
2019-04-07T16:48:04.998Z,45.60
2019-04-07T16:50:35.013Z,46.60
2019-04-07T16:53:07.638Z,46.70
2019-04-07T16:55:41.633Z,47.00
2019-04-07T16:58:11.666Z,46.90
2019-04-07T17:00:41.900Z,47.30
2019-04-07T17:03:23.822Z,48.70
2019-04-07T17:05:57.336Z,52.30
2019-04-07T17:08:24.972Z,56.10
2019-04-07T17:10:55.898Z,57.80
2019-04-07T17:13:34.494Z,59.20
2019-04-07T17:15:57.235Z,60.40
2019-04-07T17:18:41.410Z,60.30
2019-04-07T17:21:15.112Z,61.40
2019-04-07T17:23:45.573Z,61.80
2019-04-07T17:26:15.727Z,62.90
2019-04-07T17:28:48.109Z,64.60
2019-04-07T17:31:17.588Z,63.80
2019-04-07T17:33:47.251Z,63.20
2019-04-07T17:36:20.104Z,63.10
2019-04-07T17:38:58.867Z,63.40
2019-04-07T17:41:29.069Z,63.30
2019-04-07T17:44:18.280Z,63.80
2019-04-07T17:47:17.837Z,63.60
2019-04-07T17:49:49.028Z,63.30
2019-04-07T17:52:29.110Z,64.00
2019-04-07T17:55:09.545Z,64.20
2019-04-07T17:57:49.554Z,64.00
2019-04-07T18:00:21.653Z,64.40
2019-04-07T18:02:58.135Z,64.40
2019-04-07T18:05:41.254Z,64.20
2019-04-07T18:08:18.414Z,63.60
2019-04-07T18:11:28.907Z,63.20
2019-04-07T18:14:01.719Z,62.70
2019-04-07T18:16:35.362Z,63.50
2019-04-07T18:19:22.820Z,64.20
2019-04-07T18:21:57.911Z,64.00
2019-04-07T18:24:31.990Z,65.20
2019-04-07T18:27:21.609Z,64.90
2019-04-07T18:30:00.748Z,66.40
2019-04-07T18:32:49.329Z,65.40
2019-04-07T18:35:29.863Z,66.00
2019-04-07T18:38:08.824Z,66.60
2019-04-07T18:40:46.837Z,66.50
2019-04-07T18:43:34.355Z,66.90
2019-04-07T18:46:16.944Z,67.20
2019-04-07T18:49:01.784Z,67.20
2019-04-07T18:51:59.409Z,67.50
2019-04-07T18:54:33.618Z,67.70
2019-04-07T18:57:05.583Z,67.90
2019-04-07T18:59:55.580Z,67.70
2019-04-07T19:02:36.595Z,67.20
2019-04-07T19:05:45.821Z,66.40
2019-04-07T19:08:18.546Z,66.50
2019-04-07T19:11:12.475Z,66.50
2019-04-07T19:13:43.213Z,66.50
2019-04-07T19:16:29.838Z,66.40
2019-04-07T19:19:04.879Z,66.10
2019-04-07T19:21:54.735Z,66.00
2019-04-07T19:24:30.159Z,66.00
2019-04-07T19:27:16.080Z,65.80
2019-04-07T19:30:03.752Z,66.40
2019-04-07T19:32:36.872Z,66.90
2019-04-07T19:35:15.290Z,66.30
2019-04-07T19:38:00.572Z,66.30
2019-04-07T19:40:48.292Z,66.40
2019-04-07T19:43:33.018Z,66.50
2019-04-07T19:46:16.700Z,66.60
2019-04-07T19:49:04.433Z,66.70
2019-04-07T19:51:35.929Z,66.90
2019-04-07T19:54:24.225Z,66.50
2019-04-07T19:57:11.283Z,66.10
2019-04-07T19:59:43.122Z,66.40
2019-04-07T20:02:34.918Z,66.70
2019-04-07T20:05:21.119Z,66.00
2019-04-07T20:08:02.929Z,66.20
2019-04-07T20:10:52.292Z,66.30
2019-04-07T20:13:26.848Z,66.50
2019-04-07T20:16:15.552Z,66.40
2019-04-07T20:18:54.691Z,66.50
2019-04-07T20:21:35.804Z,66.50
2019-04-07T20:24:17.376Z,66.20
2019-04-07T20:26:51.017Z,65.90
2019-04-07T20:29:21.308Z,66.30
2019-04-07T20:31:56.069Z,66.10
2019-04-07T20:37:47.652Z,65.70
2019-04-07T20:40:22.240Z,65.90
2019-04-07T20:42:58.699Z,65.50
2019-04-07T20:45:41.749Z,65.70
2019-04-07T20:48:31.609Z,65.30
2019-04-07T20:51:01.039Z,65.40
2019-04-07T20:53:49.249Z,65.70
2019-04-07T20:56:27.170Z,65.70
2019-04-07T20:59:16.597Z,65.40
2019-04-07T21:02:06.927Z,65.90
2019-04-07T21:04:36.178Z,66.00
2019-04-07T21:07:11.070Z,65.60
2019-04-07T21:09:54.403Z,65.10
2019-04-07T21:12:30.134Z,65.50
2019-04-07T21:15:24.403Z,66.40
2019-04-07T21:17:49.059Z,66.90
2019-04-07T21:20:28.909Z,66.90
2019-04-07T21:23:09.234Z,66.70
2019-04-07T21:25:46.831Z,66.50
2019-04-07T21:28:18.269Z,66.50
2019-04-07T21:31:05.969Z,66.40
2019-04-07T21:33:37.093Z,66.30
2019-04-07T21:36:30.586Z,66.00
2019-04-07T21:39:14.270Z,66.30
2019-04-07T21:42:07.608Z,66.00
2019-04-07T21:44:44.182Z,65.90
2019-04-07T21:47:31.447Z,65.90
2019-04-07T21:50:19.267Z,65.90
2019-04-07T21:52:54.731Z,66.10
2019-04-07T21:55:28.894Z,66.20
2019-04-07T21:58:06.044Z,65.90
2019-04-07T22:00:43.365Z,66.10
2019-04-07T22:03:23.599Z,65.90
2019-04-07T22:06:05.658Z,65.70
2019-04-07T22:08:36.923Z,65.90
2019-04-07T22:11:07.170Z,65.40
2019-04-07T22:13:37.069Z,65.60
2019-04-07T22:16:06.705Z,65.80
2019-04-07T22:18:37.454Z,65.80
2019-04-07T22:21:07.881Z,65.90
2019-04-07T22:23:38.045Z,65.60
2019-04-07T22:26:14.646Z,65.90
2019-04-07T22:28:39.413Z,66.20
2019-04-07T22:31:12.767Z,66.00
2019-04-07T22:33:42.421Z,65.70
2019-04-07T22:36:14.221Z,65.90
2019-04-07T22:38:44.347Z,65.50
2019-04-07T22:41:13.917Z,65.70
2019-04-07T22:43:43.480Z,65.60
2019-04-07T22:46:26.068Z,65.30
2019-04-07T22:48:57.000Z,64.90
2019-04-07T22:51:25.759Z,64.70
2019-04-07T22:53:57.524Z,64.90
2019-04-07T22:56:26.274Z,65.60
2019-04-07T22:58:56.236Z,66.10
2019-04-07T23:01:27.123Z,66.70
2019-04-07T23:03:58.015Z,67.00
2019-04-07T23:06:27.554Z,67.30
2019-04-07T23:08:57.338Z,67.90
2019-04-07T23:11:28.043Z,68.00
2019-04-07T23:13:57.446Z,67.80
2019-04-07T23:16:27.555Z,67.60
2019-04-07T23:18:58.196Z,67.10
2019-04-07T23:21:27.952Z,67.10
2019-04-07T23:23:57.702Z,67.90
2019-04-07T23:26:27.266Z,68.20
2019-04-07T23:28:56.737Z,68.20
2019-04-07T23:31:27.854Z,68.10
2019-04-07T23:34:03.209Z,68.00
2019-04-07T23:36:32.541Z,68.70
2019-04-07T23:39:02.006Z,68.70
2019-04-07T23:41:32.379Z,68.20
2019-04-07T23:44:01.883Z,67.90
2019-04-07T23:46:31.693Z,68.20
2019-04-07T23:49:01.518Z,68.40
2019-04-07T23:51:31.046Z,68.20
2019-04-07T23:54:09.000Z,68.50
2019-04-07T23:56:41.355Z,69.50
2019-04-07T23:59:11.669Z,68.70
